Time;durP1;ratioP1;P1;durP2;ratioP2;P2;SDS_P1;SDS_P2;PMS_P1;PMS_P2;Temp;Humidity;BMP_temperature;BMP_pressure;BME280_temperature;BME280_humidity;BME280_pressure;Samples;Min_cycle;Max_cycle;Signal;HPM_P1;HPM_P2
2023/04/04 00:00:16;;;;;;;0.40;0.40;;;;;;;;;;4989926;28;20109;-78
2023/04/04 00:02:42;;;;;;;0.85;0.57;;;;;;;;;;5008083;28;20382;-78
2023/04/04 00:05:09;;;;;;;0.63;0.40;;;;;;;;;;4999126;28;20030;-77
2023/04/04 00:07:35;;;;;;;0.47;0.38;;;;;;;;;;5002262;28;20078;-78
2023/04/04 00:10:01;;;;;;;0.30;0.30;;;;;;;;;;4999006;28;20379;-78
2023/04/04 00:12:27;;;;;;;0.90;0.65;;;;;;;;;;4999235;28;20481;-78
2023/04/04 00:14:53;;;;;;;0.50;0.50;;;;;;;;;;5007721;28;20517;-78
2023/04/04 00:17:19;;;;;;;0.30;0.30;;;;;;;;;;4996470;28;20033;-78
2023/04/04 00:19:46;;;;;;;0.60;0.50;;;;;;;;;;4990240;28;20022;-78
2023/04/04 00:22:15;;;;;;;0.40;0.35;;;;;;;;;;5001160;28;20026;-78
2023/04/04 00:24:41;;;;;;;0.43;0.32;;;;;;;;;;4996110;28;20084;-77
2023/04/04 00:27:07;;;;;;;1.25;0.45;;;;;;;;;;5005586;28;20034;-78
2023/04/04 00:29:33;;;;;;;0.45;0.30;;;;;;;;;;5006456;28;20024;-78
2023/04/04 00:31:59;;;;;;;3.40;0.63;;;;;;;;;;5007135;28;20609;-78
2023/04/04 00:34:25;;;;;;;0.32;0.32;;;;;;;;;;4995533;28;20149;-78
2023/04/04 00:36:52;;;;;;;0.32;0.32;;;;;;;;;;4989590;28;20068;-78
2023/04/04 00:39:18;;;;;;;0.32;0.32;;;;;;;;;;5002965;28;20549;-78
2023/04/04 00:41:44;;;;;;;0.55;0.47;;;;;;;;;;5000281;28;20053;-78
2023/04/04 00:44:10;;;;;;;2.60;0.45;;;;;;;;;;5001108;28;20034;-79
2023/04/04 00:46:36;;;;;;;0.93;0.60;;;;;;;;;;4989974;28;20034;-78
2023/04/04 00:49:02;;;;;;;0.80;0.50;;;;;;;;;;5000801;28;20032;-78
2023/04/04 00:51:28;;;;;;;0.40;0.40;;;;;;;;;;4990525;28;20026;-78
2023/04/04 00:53:54;;;;;;;0.50;0.50;;;;;;;;;;5004888;28;20038;-78
2023/04/04 00:56:21;;;;;;;0.30;0.30;;;;;;;;;;5007036;28;20022;-78
2023/04/04 00:58:47;;;;;;;0.43;0.40;;;;;;;;;;4992716;28;20030;-78
2023/04/04 01:01:35;;;;;;;0.28;0.25;;;;;;;;;;4999157;28;20156;-79
2023/04/04 01:04:01;;;;;;;0.20;0.20;;;;;;;;;;5004042;28;20037;-78
2023/04/04 01:06:29;;;;;;;0.30;0.30;;;;;;;;;;5005537;28;20042;-78
2023/04/04 01:08:55;;;;;;;0.40;0.40;;;;;;;;;;4996311;28;20037;-78
2023/04/04 01:11:21;;;;;;;5.00;0.70;;;;;;;;;;4993325;28;20077;-78
2023/04/04 01:13:47;;;;;;;0.32;0.32;;;;;;;;;;4990294;28;20473;-77
2023/04/04 01:16:13;;;;;;;1.02;0.50;;;;;;;;;;5000869;28;20050;-78
2023/04/04 01:18:40;;;;;;;0.30;0.30;;;;;;;;;;4993292;28;20393;-78
2023/04/04 01:21:09;;;;;;;0.50;0.50;;;;;;;;;;4988884;28;20034;-78
2023/04/04 01:23:45;;;;;;;2.38;0.50;;;;;;;;;;4992593;28;20029;-78
2023/04/04 01:26:11;;;;;;;0.28;0.28;;;;;;;;;;4996102;28;20080;-77
2023/04/04 01:28:37;;;;;;;0.30;0.30;;;;;;;;;;5008079;28;20029;-77
2023/04/04 01:31:06;;;;;;;3.20;0.50;;;;;;;;;;5007635;28;20496;-79
2023/04/04 01:33:36;;;;;;;0.40;0.40;;;;;;;;;;5004359;28;20040;-78
2023/04/04 01:36:25;;;;;;;1.15;0.28;;;;;;;;;;4989719;28;20121;-78
2023/04/04 01:39:05;;;;;;;0.30;0.30;;;;;;;;;;4999716;28;20085;-78
2023/04/04 01:41:34;;;;;;;1.33;0.40;;;;;;;;;;4995338;28;20034;-78
2023/04/04 01:44:00;;;;;;;1.65;0.38;;;;;;;;;;5000215;28;20049;-78
2023/04/04 01:46:26;;;;;;;0.43;0.40;;;;;;;;;;4994582;28;20104;-78
2023/04/04 01:48:52;;;;;;;0.43;0.17;;;;;;;;;;4999154;28;20026;-79
2023/04/04 01:51:18;;;;;;;0.40;0.40;;;;;;;;;;4989229;28;20022;-78
2023/04/04 01:53:50;;;;;;;0.50;0.50;;;;;;;;;;5002507;28;20034;-79
2023/04/04 01:56:16;;;;;;;0.28;0.28;;;;;;;;;;5007477;28;20030;-78
2023/04/04 01:58:42;;;;;;;0.75;0.50;;;;;;;;;;5000594;28;20030;-78
2023/04/04 02:01:08;;;;;;;0.32;0.32;;;;;;;;;;5005484;28;20389;-78
2023/04/04 02:03:34;;;;;;;0.38;0.30;;;;;;;;;;5006409;28;20072;-78
2023/04/04 02:06:00;;;;;;;0.28;0.28;;;;;;;;;;5002669;28;20042;-78
2023/04/04 02:08:27;;;;;;;1.85;0.70;;;;;;;;;;5000731;28;20053;-78
2023/04/04 02:10:53;;;;;;;0.30;0.30;;;;;;;;;;4993645;28;20014;-78
2023/04/04 02:13:19;;;;;;;0.20;0.20;;;;;;;;;;4991798;28;20511;-78
2023/04/04 02:15:45;;;;;;;0.43;0.40;;;;;;;;;;4992757;28;20037;-78
2023/04/04 02:18:11;;;;;;;0.40;0.40;;;;;;;;;;4995307;28;20037;-78
2023/04/04 02:20:37;;;;;;;0.68;0.28;;;;;;;;;;4992349;28;20381;-78
2023/04/04 02:23:03;;;;;;;0.35;0.30;;;;;;;;;;5005409;28;20366;-78
2023/04/04 02:25:29;;;;;;;0.28;0.28;;;;;;;;;;5009173;28;20022;-78
2023/04/04 02:27:55;;;;;;;0.93;0.45;;;;;;;;;;5008223;28;20030;-78
2023/04/04 02:30:22;;;;;;;0.50;0.50;;;;;;;;;;5005670;28;20492;-77
2023/04/04 02:32:49;;;;;;;0.52;0.43;;;;;;;;;;4997653;28;20108;-77
2023/04/04 02:35:17;;;;;;;0.52;0.50;;;;;;;;;;5007476;28;20037;-78
2023/04/04 02:37:46;;;;;;;0.45;0.32;;;;;;;;;;5006132;28;20436;-77
2023/04/04 02:40:12;;;;;;;0.30;0.30;;;;;;;;;;4996839;28;20037;-78
2023/04/04 02:42:45;;;;;;;0.30;0.30;;;;;;;;;;5014064;28;20085;-78
2023/04/04 02:45:13;;;;;;;0.22;0.20;;;;;;;;;;5027805;28;20038;-80
2023/04/04 02:47:39;;;;;;;0.60;0.40;;;;;;;;;;5025071;28;20491;-78
2023/04/04 02:50:06;;;;;;;0.98;0.68;;;;;;;;;;5025982;28;20042;-78
2023/04/04 02:52:33;;;;;;;0.32;0.30;;;;;;;;;;5018850;28;20223;-78
2023/04/04 02:54:59;;;;;;;0.32;0.32;;;;;;;;;;5024889;28;20532;-78
2023/04/04 02:57:24;;;;;;;0.35;0.35;;;;;;;;;;5027390;28;20034;-78
2023/04/04 02:59:51;;;;;;;0.40;0.40;;;;;;;;;;5017310;28;20172;-78
2023/04/04 03:02:17;;;;;;;0.35;0.35;;;;;;;;;;5030476;28;20036;-78
2023/04/04 03:04:49;;;;;;;0.85;0.52;;;;;;;;;;5015793;28;20029;-78
2023/04/04 03:07:15;;;;;;;1.55;0.50;;;;;;;;;;5026989;28;20124;-78
2023/04/04 03:09:43;;;;;;;0.25;0.20;;;;;;;;;;5014262;28;20083;-78
2023/04/04 03:12:10;;;;;;;4.47;0.52;;;;;;;;;;5026530;28;20033;-78
2023/04/04 03:14:38;;;;;;;0.20;0.20;;;;;;;;;;5014207;28;20030;-78
2023/04/04 03:17:05;;;;;;;0.20;0.20;;;;;;;;;;5028914;28;20053;-78
2023/04/04 03:19:31;;;;;;;0.70;0.35;;;;;;;;;;5020047;28;20028;-78
2023/04/04 03:21:57;;;;;;;0.90;0.63;;;;;;;;;;5030610;28;20017;-78
2023/04/04 03:24:23;;;;;;;0.80;0.30;;;;;;;;;;5027189;28;20500;-77
2023/04/04 03:26:49;;;;;;;0.65;0.30;;;;;;;;;;5027291;28;20481;-77
2023/04/04 03:29:15;;;;;;;0.30;0.30;;;;;;;;;;5025727;28;20026;-78
2023/04/04 03:31:41;;;;;;;1.08;0.68;;;;;;;;;;5019348;28;20018;-77
2023/04/04 03:34:08;;;;;;;0.40;0.40;;;;;;;;;;5015925;28;20388;-78
2023/04/04 03:36:34;;;;;;;0.52;0.38;;;;;;;;;;5024877;28;20098;-73
2023/04/04 03:39:00;;;;;;;0.25;0.25;;;;;;;;;;5024849;28;20394;-73
2023/04/04 03:41:26;;;;;;;1.10;0.60;;;;;;;;;;5015826;28;20104;-73
2023/04/04 03:43:52;;;;;;;0.75;0.40;;;;;;;;;;4992300;28;20410;-73
2023/04/04 03:46:18;;;;;;;1.30;0.50;;;;;;;;;;4990702;28;20024;-73
2023/04/04 03:48:44;;;;;;;2.08;0.50;;;;;;;;;;4990382;28;20457;-72
2023/04/04 03:51:11;;;;;;;0.20;0.20;;;;;;;;;;4990000;28;20042;-72
2023/04/04 03:53:37;;;;;;;0.95;0.43;;;;;;;;;;4990386;28;20251;-73
2023/04/04 03:56:03;;;;;;;0.40;0.40;;;;;;;;;;5003652;28;20034;-73
2023/04/04 03:58:29;;;;;;;0.40;0.40;;;;;;;;;;4991030;28;20037;-72
2023/04/04 04:00:55;;;;;;;0.30;0.30;;;;;;;;;;4990154;28;20026;-73
2023/04/04 04:03:21;;;;;;;0.40;0.40;;;;;;;;;;5008394;28;20076;-73
2023/04/04 04:05:47;;;;;;;0.30;0.30;;;;;;;;;;5009460;28;20033;-73
2023/04/04 04:08:13;;;;;;;0.98;0.30;;;;;;;;;;5009142;28;20045;-73
2023/04/04 04:10:39;;;;;;;0.38;0.38;;;;;;;;;;5010211;28;20156;-73
2023/04/04 04:13:05;;;;;;;1.00;0.50;;;;;;;;;;5009159;28;20033;-74
2023/04/04 04:15:31;;;;;;;0.28;0.28;;;;;;;;;;5009421;28;20053;-73
2023/04/04 04:17:57;;;;;;;0.47;0.17;;;;;;;;;;5009170;28;20026;-73
2023/04/04 04:20:23;;;;;;;1.35;0.60;;;;;;;;;;5009357;28;20026;-73
2023/04/04 04:22:49;;;;;;;0.93;0.60;;;;;;;;;;5009211;28;20022;-72
2023/04/04 04:25:16;;;;;;;0.50;0.50;;;;;;;;;;5007311;28;20029;-72
2023/04/04 04:27:42;;;;;;;1.75;0.30;;;;;;;;;;4989897;28;20034;-73
2023/04/04 04:30:08;;;;;;;0.45;0.45;;;;;;;;;;4988941;28;20030;-73
2023/04/04 04:32:34;;;;;;;0.45;0.45;;;;;;;;;;4989570;28;20034;-73
2023/04/04 04:35:01;;;;;;;0.65;0.60;;;;;;;;;;4989263;28;20034;-73
2023/04/04 04:37:27;;;;;;;0.85;0.60;;;;;;;;;;4989357;28;20081;-74
2023/04/04 04:39:53;;;;;;;0.38;0.38;;;;;;;;;;4989470;28;20023;-73
2023/04/04 04:42:20;;;;;;;0.40;0.38;;;;;;;;;;5000411;28;20393;-73
2023/04/04 04:44:46;;;;;;;1.45;0.65;;;;;;;;;;5008954;28;20053;-73
2023/04/04 04:47:12;;;;;;;0.30;0.30;;;;;;;;;;5008462;28;20038;-73
2023/04/04 04:49:38;;;;;;;0.30;0.30;;;;;;;;;;5009150;28;20025;-73
2023/04/04 04:52:03;;;;;;;0.28;0.28;;;;;;;;;;5008577;28;20037;-73
2023/04/04 04:54:30;;;;;;;0.45;0.30;;;;;;;;;;5008502;28;20441;-73
2023/04/04 04:56:56;;;;;;;0.52;0.30;;;;;;;;;;5008930;28;20294;-72
2023/04/04 04:59:22;;;;;;;0.88;0.50;;;;;;;;;;5008848;28;20029;-73
2023/04/04 05:01:48;;;;;;;0.30;0.30;;;;;;;;;;5008296;28;20061;-73
2023/04/04 05:04:16;;;;;;;0.63;0.40;;;;;;;;;;5008697;28;20211;-73
2023/04/04 05:06:42;;;;;;;0.70;0.70;;;;;;;;;;5008884;28;20063;-73
2023/04/04 05:09:08;;;;;;;0.30;0.30;;;;;;;;;;5008130;28;20421;-73
2023/04/04 05:11:34;;;;;;;0.77;0.50;;;;;;;;;;5008312;28;20416;-72
2023/04/04 05:14:00;;;;;;;3.08;0.43;;;;;;;;;;5008893;28;20029;-73
2023/04/04 05:16:26;;;;;;;0.28;0.28;;;;;;;;;;5008439;28;20018;-73
2023/04/04 05:18:52;;;;;;;0.40;0.40;;;;;;;;;;5008044;28;20030;-73
2023/04/04 05:21:18;;;;;;;0.73;0.38;;;;;;;;;;5008364;28;20022;-73
2023/04/04 05:23:45;;;;;;;2.40;0.47;;;;;;;;;;5008465;28;20049;-73
2023/04/04 05:26:11;;;;;;;0.63;0.40;;;;;;;;;;4998330;28;20036;-73
2023/04/04 05:28:37;;;;;;;0.88;0.50;;;;;;;;;;4988849;28;20030;-73
2023/04/04 05:31:03;;;;;;;0.47;0.40;;;;;;;;;;4988400;28;20034;-73
2023/04/04 05:33:28;;;;;;;3.33;0.63;;;;;;;;;;4988313;28;20485;-73
2023/04/04 05:35:54;;;;;;;0.50;0.50;;;;;;;;;;4988223;28;20038;-72
2023/04/04 05:38:20;;;;;;;0.70;0.70;;;;;;;;;;4988887;28;20034;-73
2023/04/04 05:40:46;;;;;;;0.38;0.30;;;;;;;;;;4988395;28;20049;-73
2023/04/04 05:43:13;;;;;;;0.75;0.52;;;;;;;;;;5006249;28;20548;-72
2023/04/04 05:45:39;;;;;;;0.50;0.50;;;;;;;;;;5008610;28;20025;-73
2023/04/04 05:48:05;;;;;;;0.28;0.28;;;;;;;;;;5006846;28;20034;-73
2023/04/04 05:50:31;;;;;;;2.55;0.45;;;;;;;;;;5007679;28;20303;-73
2023/04/04 05:52:57;;;;;;;0.45;0.45;;;;;;;;;;5008223;28;20026;-73
2023/04/04 05:55:24;;;;;;;0.55;0.55;;;;;;;;;;5007742;28;20021;-73
2023/04/04 05:57:50;;;;;;;1.38;0.40;;;;;;;;;;5007893;28;20069;-73
2023/04/04 06:00:17;;;;;;;0.40;0.40;;;;;;;;;;4988436;28;20026;-73
2023/04/04 06:02:43;;;;;;;0.60;0.50;;;;;;;;;;5001157;28;20025;-72
2023/04/04 06:05:12;;;;;;;0.40;0.40;;;;;;;;;;5007546;28;20032;-73
2023/04/04 06:07:38;;;;;;;0.80;0.57;;;;;;;;;;5007720;28;20030;-72
2023/04/04 06:10:05;;;;;;;0.65;0.40;;;;;;;;;;5007996;28;20033;-73
2023/04/04 06:12:31;;;;;;;1.17;0.70;;;;;;;;;;4990084;28;20459;-73
2023/04/04 06:14:57;;;;;;;0.35;0.35;;;;;;;;;;5007688;28;20026;-73
2023/04/04 06:17:23;;;;;;;1.17;0.55;;;;;;;;;;5008043;28;20029;-73
2023/04/04 06:19:49;;;;;;;3.42;1.40;;;;;;;;;;5007841;28;20029;-73
2023/04/04 06:22:16;;;;;;;1.27;0.50;;;;;;;;;;5007432;28;20379;-73
2023/04/04 06:24:42;;;;;;;0.50;0.43;;;;;;;;;;5007745;28;20457;-73
2023/04/04 06:27:08;;;;;;;2.55;0.55;;;;;;;;;;5007816;28;20112;-73
2023/04/04 06:29:35;;;;;;;0.20;0.20;;;;;;;;;;5007524;28;20145;-73
2023/04/04 06:32:04;;;;;;;0.50;0.50;;;;;;;;;;5007539;28;20029;-73
2023/04/04 06:34:30;;;;;;;0.20;0.20;;;;;;;;;;5007681;28;20026;-73
2023/04/04 06:36:56;;;;;;;0.45;0.43;;;;;;;;;;5007667;28;20105;-73
2023/04/04 06:39:22;;;;;;;0.85;0.60;;;;;;;;;;5007550;28;20053;-72
2023/04/04 06:41:51;;;;;;;0.20;0.20;;;;;;;;;;5013812;28;20528;-73
2023/04/04 06:44:17;;;;;;;1.30;0.50;;;;;;;;;;5027285;28;20294;-73
2023/04/04 06:46:43;;;;;;;2.38;0.93;;;;;;;;;;5027254;28;20025;-72
2023/04/04 06:49:09;;;;;;;0.38;0.38;;;;;;;;;;5027075;28;20018;-73
2023/04/04 06:51:35;;;;;;;0.70;0.55;;;;;;;;;;5027318;28;20030;-73
2023/04/04 06:54:01;;;;;;;0.50;0.50;;;;;;;;;;5027283;28;20045;-73
2023/04/04 06:56:28;;;;;;;0.47;0.47;;;;;;;;;;5024879;28;20116;-73
2023/04/04 06:58:54;;;;;;;0.45;0.45;;;;;;;;;;5009457;28;20034;-73
2023/04/04 07:01:19;;;;;;;1.25;0.50;;;;;;;;;;5012585;28;20037;-73
2023/04/04 07:03:45;;;;;;;0.63;0.38;;;;;;;;;;5030523;28;20107;-73
2023/04/04 07:06:11;;;;;;;0.55;0.50;;;;;;;;;;5012459;28;20029;-73
2023/04/04 07:08:37;;;;;;;0.75;0.47;;;;;;;;;;5031002;28;20056;-73
2023/04/04 07:11:05;;;;;;;0.30;0.30;;;;;;;;;;5030182;28;20040;-73
2023/04/04 07:13:31;;;;;;;0.95;0.40;;;;;;;;;;5030219;28;20388;-73
2023/04/04 07:15:57;;;;;;;0.30;0.30;;;;;;;;;;5030545;28;20025;-73
2023/04/04 07:18:23;;;;;;;0.50;0.40;;;;;;;;;;5030440;28;20021;-73
2023/04/04 07:20:49;;;;;;;0.65;0.50;;;;;;;;;;5030014;28;20040;-73
2023/04/04 07:23:15;;;;;;;0.43;0.40;;;;;;;;;;5030483;28;20026;-73
2023/04/04 07:25:41;;;;;;;1.85;0.35;;;;;;;;;;5024658;28;20046;-73
2023/04/04 07:28:07;;;;;;;0.55;0.28;;;;;;;;;;5010029;28;20056;-73
2023/04/04 07:30:33;;;;;;;0.22;0.22;;;;;;;;;;5010382;28;20029;-73
2023/04/04 07:33:00;;;;;;;0.68;0.32;;;;;;;;;;5010660;28;20026;-73
2023/04/04 07:35:26;;;;;;;0.50;0.50;;;;;;;;;;5010111;28;20038;-73
2023/04/04 07:37:52;;;;;;;0.70;0.47;;;;;;;;;;5010076;28;20072;-73
2023/04/04 07:40:18;;;;;;;0.30;0.30;;;;;;;;;;5010299;28;20099;-73
2023/04/04 07:42:53;;;;;;;0.57;0.30;;;;;;;;;;5009937;28;20046;-73
2023/04/04 07:45:19;;;;;;;0.50;0.50;;;;;;;;;;5010087;28;20040;-73
2023/04/04 07:47:45;;;;;;;0.75;0.60;;;;;;;;;;5009989;28;20034;-73
2023/04/04 07:50:14;;;;;;;0.20;0.20;;;;;;;;;;5009671;28;20100;-73
2023/04/04 07:52:41;;;;;;;0.40;0.40;;;;;;;;;;5010388;28;20153;-73
2023/04/04 07:55:07;;;;;;;0.38;0.38;;;;;;;;;;5015362;28;20099;-73
2023/04/04 07:57:33;;;;;;;0.45;0.40;;;;;;;;;;5018420;28;20507;-73
2023/04/04 08:00:00;;;;;;;0.88;0.73;;;;;;;;;;5009806;28;20018;-73
2023/04/04 08:02:25;;;;;;;1.08;0.30;;;;;;;;;;5020747;28;20043;-73
2023/04/04 08:04:52;;;;;;;0.20;0.20;;;;;;;;;;5029222;28;20024;-73
2023/04/04 08:07:17;;;;;;;0.32;0.32;;;;;;;;;;5029270;28;20033;-74
2023/04/04 08:09:43;;;;;;;0.35;0.35;;;;;;;;;;5028745;28;20507;-73
2023/04/04 08:12:10;;;;;;;0.35;0.35;;;;;;;;;;5028970;28;20380;-73
2023/04/04 08:14:36;;;;;;;0.60;0.50;;;;;;;;;;5029283;28;20032;-73
2023/04/04 08:17:02;;;;;;;0.25;0.25;;;;;;;;;;5029444;28;20025;-73
2023/04/04 08:19:28;;;;;;;0.20;0.20;;;;;;;;;;5028950;28;20033;-73
2023/04/04 08:21:54;;;;;;;0.68;0.30;;;;;;;;;;5029005;28;20026;-73
2023/04/04 08:24:21;;;;;;;0.45;0.40;;;;;;;;;;5029214;28;20032;-73
2023/04/04 08:26:47;;;;;;;0.40;0.40;;;;;;;;;;5014493;28;20610;-74
2023/04/04 08:29:13;;;;;;;1.05;0.60;;;;;;;;;;5008921;28;20029;-73
2023/04/04 08:31:40;;;;;;;4.38;0.43;;;;;;;;;;5009446;28;20037;-73
2023/04/04 08:34:07;;;;;;;1.38;0.40;;;;;;;;;;5009350;28;20018;-73
2023/04/04 08:36:33;;;;;;;0.17;0.17;;;;;;;;;;5009196;28;20388;-74
2023/04/04 08:38:59;;;;;;;0.22;0.22;;;;;;;;;;5008823;28;20473;-73
2023/04/04 08:41:26;;;;;;;0.30;0.30;;;;;;;;;;5009017;28;20168;-74
2023/04/04 08:43:56;;;;;;;0.57;0.57;;;;;;;;;;5008851;28;20084;-73
2023/04/04 08:46:23;;;;;;;0.32;0.32;;;;;;;;;;5008974;28;20076;-74
2023/04/04 08:48:50;;;;;;;0.40;0.40;;;;;;;;;;5008831;28;20116;-73
2023/04/04 08:51:17;;;;;;;1.55;0.38;;;;;;;;;;5008822;28;20030;-74
2023/04/04 08:53:43;;;;;;;0.75;0.43;;;;;;;;;;5009147;28;20037;-74
2023/04/04 08:56:09;;;;;;;0.20;0.20;;;;;;;;;;5022632;28;20082;-73
2023/04/04 08:58:37;;;;;;;0.20;0.20;;;;;;;;;;5008665;28;20026;-74
2023/04/04 09:01:04;;;;;;;0.40;0.40;;;;;;;;;;5008943;28;20013;-73
2023/04/04 09:03:31;;;;;;;0.43;0.40;;;;;;;;;;5028252;28;20021;-73
2023/04/04 09:05:57;;;;;;;0.38;0.38;;;;;;;;;;5028102;28;20100;-73
2023/04/04 09:08:24;;;;;;;0.20;0.20;;;;;;;;;;5028372;28;20388;-73
2023/04/04 09:10:51;;;;;;;0.25;0.25;;;;;;;;;;5028493;28;20025;-73
2023/04/04 09:13:17;;;;;;;1.48;0.40;;;;;;;;;;5028003;28;20025;-73
2023/04/04 09:15:46;;;;;;;1.15;0.30;;;;;;;;;;5027905;28;20049;-73
2023/04/04 09:18:11;;;;;;;0.77;0.28;;;;;;;;;;5027909;28;20252;-73
2023/04/04 09:20:42;;;;;;;0.55;0.30;;;;;;;;;;5028025;28;20025;-73
2023/04/04 09:23:19;;;;;;;0.25;0.25;;;;;;;;;;5027722;28;20047;-73
2023/04/04 09:25:46;;;;;;;0.47;0.32;;;;;;;;;;5022165;28;20029;-73
2023/04/04 09:28:13;;;;;;;0.17;0.17;;;;;;;;;;5008256;28;20037;-73
2023/04/04 09:30:40;;;;;;;0.20;0.20;;;;;;;;;;5008127;28;20445;-74
2023/04/04 09:33:09;;;;;;;0.25;0.25;;;;;;;;;;5008031;28;20523;-73
2023/04/04 09:35:36;;;;;;;0.30;0.30;;;;;;;;;;5008465;28;20105;-73
2023/04/04 09:38:02;;;;;;;0.30;0.30;;;;;;;;;;5008096;28;20755;-73
2023/04/04 09:40:29;;;;;;;1.10;0.50;;;;;;;;;;5007759;28;20041;-74
2023/04/04 09:42:59;;;;;;;0.15;0.15;;;;;;;;;;5008126;28;20041;-74
2023/04/04 09:45:25;;;;;;;0.40;0.20;;;;;;;;;;5008398;28;20032;-73
2023/04/04 09:47:52;;;;;;;0.52;0.20;;;;;;;;;;5008201;28;20033;-73
2023/04/04 09:50:22;;;;;;;0.55;0.43;;;;;;;;;;5007763;28;20061;-73
2023/04/04 09:52:49;;;;;;;0.52;0.52;;;;;;;;;;5007894;28;20036;-74
2023/04/04 09:55:17;;;;;;;1.20;0.30;;;;;;;;;;5014845;28;20025;-73
2023/04/04 09:57:46;;;;;;;0.28;0.28;;;;;;;;;;5015274;28;20516;-74
2023/04/04 10:00:12;;;;;;;0.30;0.30;;;;;;;;;;5007761;28;20018;-74
2023/04/04 10:02:39;;;;;;;0.35;0.35;;;;;;;;;;5020041;28;20052;-73
2023/04/04 10:05:09;;;;;;;0.57;0.32;;;;;;;;;;5027539;28;20025;-73
2023/04/04 10:07:37;;;;;;;1.13;0.30;;;;;;;;;;5027673;28;20030;-73
2023/04/04 10:10:07;;;;;;;1.60;0.52;;;;;;;;;;5027494;28;20483;-73
2023/04/04 10:12:33;;;;;;;0.80;0.30;;;;;;;;;;5027832;28;20025;-73
2023/04/04 10:15:00;;;;;;;0.70;0.20;;;;;;;;;;5027282;28;20021;-74
2023/04/04 10:17:39;;;;;;;0.47;0.40;;;;;;;;;;5027503;28;20037;-73
2023/04/04 10:20:06;;;;;;;0.43;0.30;;;;;;;;;;5027189;28;20056;-73
2023/04/04 10:22:32;;;;;;;0.30;0.22;;;;;;;;;;5027252;28;20025;-73
2023/04/04 10:24:58;;;;;;;0.25;0.25;;;;;;;;;;5027930;28;20074;-73
2023/04/04 10:27:25;;;;;;;0.20;0.20;;;;;;;;;;5007264;28;20042;-73
2023/04/04 10:29:51;;;;;;;0.38;0.38;;;;;;;;;;5007454;28;20137;-74
2023/04/04 10:32:28;;;;;;;0.38;0.30;;;;;;;;;;5007539;28;20307;-73
2023/04/04 10:34:58;;;;;;;0.30;0.30;;;;;;;;;;5011336;28;20038;-73
2023/04/04 10:37:27;;;;;;;0.20;0.20;;;;;;;;;;5010968;28;20026;-73
2023/04/04 10:40:09;;;;;;;0.93;0.32;;;;;;;;;;5011357;28;20388;-73
2023/04/04 10:42:39;;;;;;;0.32;0.32;;;;;;;;;;5010823;28;20037;-73
2023/04/04 10:45:07;;;;;;;1.70;0.30;;;;;;;;;;5010953;28;20026;-72
2023/04/04 10:47:33;;;;;;;0.20;0.20;;;;;;;;;;5011085;28;20041;-73
2023/04/04 10:50:00;;;;;;;0.75;0.40;;;;;;;;;;5011320;28;20051;-73
2023/04/04 10:52:28;;;;;;;0.30;0.30;;;;;;;;;;5010801;28;20061;-73
2023/04/04 10:54:56;;;;;;;0.75;0.20;;;;;;;;;;5014373;28;20025;-73
2023/04/04 10:57:23;;;;;;;0.32;0.22;;;;;;;;;;5020980;28;20065;-72
2023/04/04 11:00:07;;;;;;;0.20;0.20;;;;;;;;;;5011175;28;20022;-73
2023/04/04 11:02:43;;;;;;;0.22;0.22;;;;;;;;;;5022247;28;20595;-73
2023/04/04 11:05:11;;;;;;;0.20;0.20;;;;;;;;;;5010822;28;20096;-73
2023/04/04 11:07:39;;;;;;;0.38;0.38;;;;;;;;;;5010751;28;20133;-74
2023/04/04 11:10:15;;;;;;;0.30;0.30;;;;;;;;;;5010860;28;20041;-73
2023/04/04 11:12:44;;;;;;;0.63;0.40;;;;;;;;;;5010639;28;20511;-73
2023/04/04 11:15:11;;;;;;;1.20;0.20;;;;;;;;;;5010370;28;20037;-72
2023/04/04 11:18:03;;;;;;;0.73;0.30;;;;;;;;;;5010393;28;20045;-73
2023/04/04 11:20:33;;;;;;;0.20;0.20;;;;;;;;;;5005984;28;20511;-73
2023/04/04 11:23:03;;;;;;;0.90;0.40;;;;;;;;;;5010543;28;20228;-73
2023/04/04 11:25:42;;;;;;;1.05;0.25;;;;;;;;;;5014157;28;20049;-73
2023/04/04 11:28:09;;;;;;;0.20;0.20;;;;;;;;;;5029815;28;20032;-73
2023/04/04 11:30:43;;;;;;;0.20;0.20;;;;;;;;;;5030012;28;20475;-72
2023/04/04 11:33:10;;;;;;;0.32;0.32;;;;;;;;;;5029656;28;20033;-73
2023/04/04 11:35:41;;;;;;;0.22;0.22;;;;;;;;;;5030218;28;20025;-73
2023/04/04 11:38:14;;;;;;;0.53;0.40;;;;;;;;;;5030072;28;20032;-73
2023/04/04 11:40:41;;;;;;;0.20;0.20;;;;;;;;;;5030528;28;20468;-73
2023/04/04 11:43:09;;;;;;;0.95;0.55;;;;;;;;;;5011793;28;20057;-73
2023/04/04 11:45:36;;;;;;;0.40;0.30;;;;;;;;;;5008561;28;20021;-73
2023/04/04 11:48:03;;;;;;;0.20;0.20;;;;;;;;;;5010220;28;20361;-73
2023/04/04 11:50:39;;;;;;;0.85;0.38;;;;;;;;;;5009928;28;20061;-73
2023/04/04 11:53:06;;;;;;;0.55;0.35;;;;;;;;;;5009773;28;20100;-73
2023/04/04 11:55:33;;;;;;;0.32;0.30;;;;;;;;;;5009498;28;20396;-73
2023/04/04 11:58:05;;;;;;;0.20;0.20;;;;;;;;;;4995202;28;20609;-73
2023/04/04 12:00:34;;;;;;;2.33;0.30;;;;;;;;;;4990268;28;20030;-73
2023/04/04 12:03:00;;;;;;;0.20;0.20;;;;;;;;;;5004966;28;20014;-73
2023/04/04 12:05:29;;;;;;;0.20;0.20;;;;;;;;;;5009739;28;20036;-74
2023/04/04 12:07:56;;;;;;;0.30;0.30;;;;;;;;;;5009724;28;20026;-73
2023/04/04 12:10:22;;;;;;;0.30;0.30;;;;;;;;;;4992060;28;20026;-74
2023/04/04 12:12:48;;;;;;;0.75;0.30;;;;;;;;;;5009195;28;20318;-74
2023/04/04 12:15:14;;;;;;;0.35;0.35;;;;;;;;;;5009395;28;20262;-73
2023/04/04 12:17:42;;;;;;;0.13;0.10;;;;;;;;;;5009587;28;20432;-73
2023/04/04 12:20:09;;;;;;;0.30;0.30;;;;;;;;;;5009269;28;20030;-73
2023/04/04 12:22:35;;;;;;;1.10;0.30;;;;;;;;;;5009214;28;20033;-74
2023/04/04 12:25:11;;;;;;;0.30;0.30;;;;;;;;;;5009394;28;20018;-73
2023/04/04 12:27:37;;;;;;;0.20;0.20;;;;;;;;;;4989685;28;20370;-73
2023/04/04 12:30:05;;;;;;;0.20;0.20;;;;;;;;;;4989753;28;20548;-73
2023/04/04 12:32:31;;;;;;;0.20;0.20;;;;;;;;;;4989703;28;20037;-73
2023/04/04 12:35:01;;;;;;;0.30;0.20;;;;;;;;;;4989334;28;20117;-73
2023/04/04 12:37:30;;;;;;;0.50;0.30;;;;;;;;;;4989006;28;20205;-73
2023/04/04 12:39:56;;;;;;;1.02;0.30;;;;;;;;;;4989764;28;20109;-73
2023/04/04 12:42:26;;;;;;;0.65;0.20;;;;;;;;;;4982984;28;20045;-73
2023/04/04 12:44:53;;;;;;;0.20;0.20;;;;;;;;;;5009079;28;20053;-72
2023/04/04 12:47:21;;;;;;;0.22;0.22;;;;;;;;;;5008714;28;20034;-72
2023/04/04 12:49:47;;;;;;;0.82;0.32;;;;;;;;;;5008696;28;20270;-72
2023/04/04 12:52:19;;;;;;;0.20;0.20;;;;;;;;;;5008910;28;20547;-72
2023/04/04 12:54:45;;;;;;;0.30;0.30;;;;;;;;;;5012223;28;20067;-73
2023/04/04 12:57:13;;;;;;;0.65;0.20;;;;;;;;;;5019590;28;20080;-73
2023/04/04 12:59:39;;;;;;;0.15;0.15;;;;;;;;;;5008743;28;20021;-73
2023/04/04 13:02:09;;;;;;;0.30;0.30;;;;;;;;;;5016795;28;20496;-72
2023/04/04 13:04:36;;;;;;;0.20;0.20;;;;;;;;;;5028502;28;20022;-72
2023/04/04 13:07:03;;;;;;;0.40;0.28;;;;;;;;;;5028526;28;20263;-73
2023/04/04 13:09:29;;;;;;;0.30;0.30;;;;;;;;;;5027900;28;20036;-72
2023/04/04 13:11:58;;;;;;;0.20;0.20;;;;;;;;;;5028155;28;20242;-72
2023/04/04 13:14:24;;;;;;;0.30;0.22;;;;;;;;;;5028226;28;20039;-73
2023/04/04 13:17:04;;;;;;;1.52;0.60;;;;;;;;;;5028032;28;20028;-73
2023/04/04 13:19:30;;;;;;;0.52;0.22;;;;;;;;;;5027893;28;20036;-75
2023/04/04 13:21:56;;;;;;;0.10;0.10;;;;;;;;;;5028720;28;20018;-72
2023/04/04 13:24:22;;;;;;;0.47;0.47;;;;;;;;;;5027611;28;20362;-75
2023/04/04 13:26:48;;;;;;;0.32;0.32;;;;;;;;;;5013169;28;20303;-72
2023/04/04 13:29:14;;;;;;;0.25;0.25;;;;;;;;;;5008275;28;20477;-72
2023/04/04 13:31:40;;;;;;;0.05;0.05;;;;;;;;;;5008190;28;20037;-74
2023/04/04 13:34:06;;;;;;;0.20;0.20;;;;;;;;;;5008160;28;20018;-73
2023/04/04 13:36:32;;;;;;;0.40;0.40;;;;;;;;;;5008352;28;20033;-72
2023/04/04 13:38:58;;;;;;;0.10;0.10;;;;;;;;;;5007894;28;20481;-72
2023/04/04 13:41:24;;;;;;;0.30;0.30;;;;;;;;;;5007628;28;20045;-74
2023/04/04 13:43:51;;;;;;;0.10;0.10;;;;;;;;;;5008380;28;20117;-73
2023/04/04 13:46:17;;;;;;;0.30;0.30;;;;;;;;;;5007927;28;20022;-73
2023/04/04 13:48:43;;;;;;;0.20;0.20;;;;;;;;;;5007756;28;20033;-72
2023/04/04 13:51:09;;;;;;;0.47;0.20;;;;;;;;;;5008217;28;20030;-72
2023/04/04 13:53:35;;;;;;;0.30;0.30;;;;;;;;;;5007853;28;20028;-72
2023/04/04 13:56:01;;;;;;;0.30;0.30;;;;;;;;;;5020392;28;20033;-73
2023/04/04 13:58:27;;;;;;;0.20;0.20;;;;;;;;;;5008944;28;20034;-73
2023/04/04 14:00:53;;;;;;;0.50;0.20;;;;;;;;;;5008121;28;20025;-73
2023/04/04 14:03:19;;;;;;;0.45;0.30;;;;;;;;;;5025139;28;20500;-73
2023/04/04 14:05:45;;;;;;;0.20;0.20;;;;;;;;;;5027516;28;20535;-73
2023/04/04 14:08:11;;;;;;;1.55;0.25;;;;;;;;;;5028658;28;20040;-72
2023/04/04 14:10:37;;;;;;;0.32;0.32;;;;;;;;;;5031696;28;20030;-72
2023/04/04 14:13:03;;;;;;;0.70;0.50;;;;;;;;;;5031538;28;20488;-72
2023/04/04 14:15:29;;;;;;;0.43;0.43;;;;;;;;;;5031636;28;20033;-72
2023/04/04 14:17:58;;;;;;;0.22;0.22;;;;;;;;;;5031513;28;20464;-73
2023/04/04 14:20:24;;;;;;;0.25;0.25;;;;;;;;;;5031125;28;20112;-73
2023/04/04 14:22:51;;;;;;;0.40;0.30;;;;;;;;;;5031307;28;20079;-72
2023/04/04 14:25:17;;;;;;;0.52;0.30;;;;;;;;;;5029165;28;20021;-72
2023/04/04 14:27:43;;;;;;;0.17;0.17;;;;;;;;;;5011309;28;20449;-73
2023/04/04 14:30:09;;;;;;;0.52;0.50;;;;;;;;;;5011283;28;20022;-72
2023/04/04 14:32:35;;;;;;;0.17;0.17;;;;;;;;;;5011687;28;20048;-72
2023/04/04 14:35:01;;;;;;;1.38;0.32;;;;;;;;;;5011407;28;20532;-73
2023/04/04 14:37:27;;;;;;;0.20;0.20;;;;;;;;;;5011017;28;20022;-72
2023/04/04 14:39:53;;;;;;;1.35;0.20;;;;;;;;;;5011635;28;20033;-73
2023/04/04 14:42:18;;;;;;;0.52;0.20;;;;;;;;;;5011043;28;20050;-72